sensor_id;sensor_type;location;lat;lon;timestamp;temperature;humidity
1524;DHT22;755;53.658;10.118;2023-05-07T00:02:14;8.90;99.90
1524;DHT22;755;53.658;10.118;2023-05-07T00:12:17;8.80;99.90
1524;DHT22;755;53.658;10.118;2023-05-07T00:22:20;8.80;99.90
1524;DHT22;755;53.658;10.118;2023-05-07T00:32:23;8.80;99.90
1524;DHT22;755;53.658;10.118;2023-05-07T00:42:27;8.80;99.90
1524;DHT22;755;53.658;10.118;2023-05-07T00:52:29;8.80;99.90
1524;DHT22;755;53.658;10.118;2023-05-07T01:02:33;8.70;99.90
1524;DHT22;755;53.658;10.118;2023-05-07T01:12:37;8.70;99.90
1524;DHT22;755;53.658;10.118;2023-05-07T01:22:43;8.80;99.90
1524;DHT22;755;53.658;10.118;2023-05-07T01:32:49;8.80;99.90
1524;DHT22;755;53.658;10.118;2023-05-07T01:42:54;8.70;99.90
1524;DHT22;755;53.658;10.118;2023-05-07T01:52:56;8.60;99.90
1524;DHT22;755;53.658;10.118;2023-05-07T02:03:00;8.70;99.90
1524;DHT22;755;53.658;10.118;2023-05-07T02:13:02;8.70;99.90
1524;DHT22;755;53.658;10.118;2023-05-07T02:23:07;8.70;99.90
1524;DHT22;755;53.658;10.118;2023-05-07T02:33:12;8.60;99.90
1524;DHT22;755;53.658;10.118;2023-05-07T02:43:19;8.60;99.90
1524;DHT22;755;53.658;10.118;2023-05-07T02:53:22;8.60;99.90
1524;DHT22;755;53.658;10.118;2023-05-07T03:03:28;8.60;99.90
1524;DHT22;755;53.658;10.118;2023-05-07T03:13:30;8.60;99.90
1524;DHT22;755;53.658;10.118;2023-05-07T03:23:35;8.60;99.90
1524;DHT22;755;53.658;10.118;2023-05-07T03:33:50;8.60;99.90
1524;DHT22;755;53.658;10.118;2023-05-07T03:43:54;8.50;99.90
1524;DHT22;755;53.658;10.118;2023-05-07T03:53:57;8.60;99.90
1524;DHT22;755;53.658;10.118;2023-05-07T04:04:01;8.60;99.90
1524;DHT22;755;53.658;10.118;2023-05-07T04:14:04;8.60;99.90
1524;DHT22;755;53.658;10.118;2023-05-07T04:24:08;8.60;99.90
1524;DHT22;755;53.658;10.118;2023-05-07T04:34:10;8.60;99.90
1524;DHT22;755;53.658;10.118;2023-05-07T04:44:14;8.70;99.90
1524;DHT22;755;53.658;10.118;2023-05-07T04:54:18;8.70;99.90
1524;DHT22;755;53.658;10.118;2023-05-07T05:04:22;8.70;99.90
1524;DHT22;755;53.658;10.118;2023-05-07T05:14:27;8.80;99.90
1524;DHT22;755;53.658;10.118;2023-05-07T05:24:32;8.80;99.90
1524;DHT22;755;53.658;10.118;2023-05-07T05:34:35;8.90;99.90
1524;DHT22;755;53.658;10.118;2023-05-07T05:44:38;8.90;99.90
1524;DHT22;755;53.658;10.118;2023-05-07T05:54:41;9.00;99.90
1524;DHT22;755;53.658;10.118;2023-05-07T06:04:47;9.10;80.30
1524;DHT22;755;53.658;10.118;2023-05-07T06:14:49;9.30;91.00
1524;DHT22;755;53.658;10.118;2023-05-07T06:24:54;9.40;1.00
1524;DHT22;755;53.658;10.118;2023-05-07T06:34:58;9.60;1.00
1524;DHT22;755;53.658;10.118;2023-05-07T06:45:12;9.60;1.00
1524;DHT22;755;53.658;10.118;2023-05-07T06:55:15;9.80;1.00
1524;DHT22;755;53.658;10.118;2023-05-07T07:05:22;9.90;99.90
1524;DHT22;755;53.658;10.118;2023-05-07T07:15:29;9.90;99.90
1524;DHT22;755;53.658;10.118;2023-05-07T07:25:34;10.20;1.00
1524;DHT22;755;53.658;10.118;2023-05-07T07:35:37;10.20;99.90
1524;DHT22;755;53.658;10.118;2023-05-07T07:45:43;10.30;1.00
1524;DHT22;755;53.658;10.118;2023-05-07T07:55:48;10.20;1.00
1524;DHT22;755;53.658;10.118;2023-05-07T08:05:51;10.40;1.00
1524;DHT22;755;53.658;10.118;2023-05-07T08:15:57;10.40;1.00
1524;DHT22;755;53.658;10.118;2023-05-07T08:26:01;10.40;1.00
1524;DHT22;755;53.658;10.118;2023-05-07T08:36:15;10.60;99.90
1524;DHT22;755;53.658;10.118;2023-05-07T08:46:31;10.90;99.90
1524;DHT22;755;53.658;10.118;2023-05-07T08:56:36;11.10;1.00
1524;DHT22;755;53.658;10.118;2023-05-07T09:06:43;11.50;1.00
1524;DHT22;755;53.658;10.118;2023-05-07T09:16:57;11.20;1.00
1524;DHT22;755;53.658;10.118;2023-05-07T09:27:01;11.20;99.90
1524;DHT22;755;53.658;10.118;2023-05-07T09:37:06;11.10;70.70
1524;DHT22;755;53.658;10.118;2023-05-07T09:47:10;11.60;1.30
1524;DHT22;755;53.658;10.118;2023-05-07T09:57:13;11.60;1.00
1524;DHT22;755;53.658;10.118;2023-05-07T10:07:18;11.60;99.90
1524;DHT22;755;53.658;10.118;2023-05-07T10:17:23;12.00;1.00
1524;DHT22;755;53.658;10.118;2023-05-07T10:27:27;12.40;99.90
1524;DHT22;755;53.658;10.118;2023-05-07T10:37:33;13.00;99.90
1524;DHT22;755;53.658;10.118;2023-05-07T10:48:10;13.50;1.00
1524;DHT22;755;53.658;10.118;2023-05-07T10:58:26;13.40;99.90
1524;DHT22;755;53.658;10.118;2023-05-07T11:08:52;13.00;19.70
1524;DHT22;755;53.658;10.118;2023-05-07T11:18:55;13.50;35.60
1524;DHT22;755;53.658;10.118;2023-05-07T11:29:10;14.00;1.00
1524;DHT22;755;53.658;10.118;2023-05-07T11:39:27;14.20;99.90
1524;DHT22;755;53.658;10.118;2023-05-07T11:49:30;14.60;1.00
1524;DHT22;755;53.658;10.118;2023-05-07T11:59:38;14.80;1.00
1524;DHT22;755;53.658;10.118;2023-05-07T12:09:43;14.80;1.00
1524;DHT22;755;53.658;10.118;2023-05-07T12:19:46;15.30;99.90
1524;DHT22;755;53.658;10.118;2023-05-07T12:29:50;15.50;99.90
1524;DHT22;755;53.658;10.118;2023-05-07T12:40:04;15.60;99.90
1524;DHT22;755;53.658;10.118;2023-05-07T12:50:09;16.30;99.90
1524;DHT22;755;53.658;10.118;2023-05-07T13:00:13;16.20;1.00
1524;DHT22;755;53.658;10.118;2023-05-07T13:10:17;16.50;1.00
1524;DHT22;755;53.658;10.118;2023-05-07T13:20:19;16.70;1.00
1524;DHT22;755;53.658;10.118;2023-05-07T13:30:23;17.30;99.90
1524;DHT22;755;53.658;10.118;2023-05-07T13:40:25;16.90;99.90
1524;DHT22;755;53.658;10.118;2023-05-07T13:50:28;17.10;99.90
1524;DHT22;755;53.658;10.118;2023-05-07T14:00:30;17.60;99.90
1524;DHT22;755;53.658;10.118;2023-05-07T14:10:34;17.30;99.90
1524;DHT22;755;53.658;10.118;2023-05-07T14:20:36;18.10;99.90
1524;DHT22;755;53.658;10.118;2023-05-07T14:30:39;17.80;82.20
1524;DHT22;755;53.658;10.118;2023-05-07T14:40:42;17.00;99.90
1524;DHT22;755;53.658;10.118;2023-05-07T14:50:46;16.40;99.90
1524;DHT22;755;53.658;10.118;2023-05-07T15:00:52;15.90;99.90
1524;DHT22;755;53.658;10.118;2023-05-07T15:10:56;15.80;1.00
1524;DHT22;755;53.658;10.118;2023-05-07T15:20:59;16.00;99.90
1524;DHT22;755;53.658;10.118;2023-05-07T15:31:05;15.70;99.90
1524;DHT22;755;53.658;10.118;2023-05-07T15:41:07;15.50;1.00
1524;DHT22;755;53.658;10.118;2023-05-07T15:51:11;15.40;1.00
1524;DHT22;755;53.658;10.118;2023-05-07T16:01:14;15.30;1.00
1524;DHT22;755;53.658;10.118;2023-05-07T16:11:20;15.20;1.00
1524;DHT22;755;53.658;10.118;2023-05-07T16:21:22;15.30;1.00
1524;DHT22;755;53.658;10.118;2023-05-07T16:31:26;15.30;1.00
1524;DHT22;755;53.658;10.118;2023-05-07T16:41:29;15.10;1.00
1524;DHT22;755;53.658;10.118;2023-05-07T16:51:34;14.90;1.00
1524;DHT22;755;53.658;10.118;2023-05-07T17:01:36;15.00;1.00
1524;DHT22;755;53.658;10.118;2023-05-07T17:11:40;15.00;1.00
1524;DHT22;755;53.658;10.118;2023-05-07T17:21:42;14.90;1.00
1524;DHT22;755;53.658;10.118;2023-05-07T17:31:49;14.70;1.00
1524;DHT22;755;53.658;10.118;2023-05-07T17:41:55;14.50;80.10
1524;DHT22;755;53.658;10.118;2023-05-07T17:52:03;14.40;99.90
1524;DHT22;755;53.658;10.118;2023-05-07T18:02:41;14.00;1.00
1524;DHT22;755;53.658;10.118;2023-05-07T18:13:33;13.70;1.00
1524;DHT22;755;53.658;10.118;2023-05-07T18:23:37;13.50;1.00
1524;DHT22;755;53.658;10.118;2023-05-07T18:44:58;13.20;99.90
1524;DHT22;755;53.658;10.118;2023-05-07T18:55:01;12.80;1.00
1524;DHT22;755;53.658;10.118;2023-05-07T19:05:05;12.50;99.90
1524;DHT22;755;53.658;10.118;2023-05-07T19:15:08;12.30;61.60
1524;DHT22;755;53.658;10.118;2023-05-07T19:25:12;12.10;1.00
1524;DHT22;755;53.658;10.118;2023-05-07T19:35:14;11.80;99.90
1524;DHT22;755;53.658;10.118;2023-05-07T19:45:17;11.60;1.00
1524;DHT22;755;53.658;10.118;2023-05-07T19:55:19;11.50;99.90
1524;DHT22;755;53.658;10.118;2023-05-07T20:05:22;11.20;17.10
1524;DHT22;755;53.658;10.118;2023-05-07T20:15:25;10.80;99.90
1524;DHT22;755;53.658;10.118;2023-05-07T20:25:28;10.50;99.90
1524;DHT22;755;53.658;10.118;2023-05-07T20:35:32;10.50;1.00
1524;DHT22;755;53.658;10.118;2023-05-07T20:45:36;10.30;1.00
1524;DHT22;755;53.658;10.118;2023-05-07T20:55:38;9.70;32.50
1524;DHT22;755;53.658;10.118;2023-05-07T21:05:41;9.60;99.90
1524;DHT22;755;53.658;10.118;2023-05-07T21:15:43;9.60;95.50
1524;DHT22;755;53.658;10.118;2023-05-07T21:25:47;9.50;57.40
1524;DHT22;755;53.658;10.118;2023-05-07T21:35:51;9.60;1.00
1524;DHT22;755;53.658;10.118;2023-05-07T21:45:55;9.70;1.00
1524;DHT22;755;53.658;10.118;2023-05-07T21:55:57;9.70;1.00
1524;DHT22;755;53.658;10.118;2023-05-07T22:06:03;9.80;99.90
1524;DHT22;755;53.658;10.118;2023-05-07T22:16:05;9.80;86.60
1524;DHT22;755;53.658;10.118;2023-05-07T22:26:12;9.90;1.00
1524;DHT22;755;53.658;10.118;2023-05-07T22:36:14;9.90;1.00
1524;DHT22;755;53.658;10.118;2023-05-07T22:46:17;9.90;99.90
1524;DHT22;755;53.658;10.118;2023-05-07T22:56:19;9.70;99.90
1524;DHT22;755;53.658;10.118;2023-05-07T23:06:23;9.70;99.90
1524;DHT22;755;53.658;10.118;2023-05-07T23:16:25;9.60;83.50
1524;DHT22;755;53.658;10.118;2023-05-07T23:26:30;9.50;99.90
1524;DHT22;755;53.658;10.118;2023-05-07T23:36:32;9.30;1.00
1524;DHT22;755;53.658;10.118;2023-05-07T23:46:35;9.20;1.00
1524;DHT22;755;53.658;10.118;2023-05-07T23:56:37;9.10;1.00
